KHNZ

Details ICAO KHNZ
Name HENDERSON OXFORD
Region United States
Timezone America/New_York (UTC-4.0)
Plans Departing 7
Arriving 9
Stats Elevation 527 ft / 161 m (AMSL)
Location 36.361562° -78.529188°
Runways 1
Magnetic Variation 9.447° W
Sunrise 2018-05-20 10:05:17 UTC / 2018-05-20 06:05:17 Local
Sunset 2018-05-21 00:18:52 UTC / 2018-05-20 20:18:52 Local
Advertisement - Login to hide

Runways

ID Width Length Bearing (true) Bearing (mag) Surface Threshold Offset Overrun Length
06 100 ft / 30 m 5,001 ft / 1,524 m 51.07° 60.52° Asphalt 200 ft / 61 m 0 ft / 0 m
24 100 ft / 30 m 5,001 ft / 1,524 m 231.08° 240.53° Asphalt 0 ft / 0 m 0 ft / 0 m

Map

Weather


0- 5 10 15 20 25 30 35+ Temperature / ° C

Clouds and Precipitation
Forecast for 2018-05-21 06:00 UTC. Updated 15 minutes ago

Ground ~20,000 ft ~40,000 ft Winds

METAR

KHNZ 210335Z AUTO 22005KT 10SM CLR 22/20 A3011 RMK AO2 T02160200

TAF

Not found

Frequencies

Recorded 118.62 MHz AWOS 3
Approach 132.35 MHz RALEIGH APP/DEP
Unicom 122.80 MHz CTAF/UNICOM
Warning: Do not use this data for real-world aviation or navigation. No guarantee of current accuracy is given.